Margaret Chase Smith — WTM3462 — position and weather

sailwx.info

Track history (hours):
 
Tides and Currents Weather Stations Pressure Air Temp Water Temp Dewpoint Dewpoint Depression Visibility Wind Speed Wind Dir Waves Ship Positions

Margaret Chase Smith

Owner: Maine State Ferry Service, ROCKLAND, ME. More information available from US FCC via Universal Licensing System and Coast Guard Vessel Documentation Center.

Last reported at 2018-Apr-18 21:09 UTC. Time now 2018-Apr-19 11:28 UTC.
Position N 44°17' W 068°58'.

Length 50 m.

Type: Passenger vessel. MMSI: 367191630.

Date/timePositionNaut miles runAvg speedWind from/ knotsBaromVisibWave heightAir tempDewpointWater temp
2018-Apr-18 21:09N 44°17' W 068°58'0 0.1
2018-Apr-18 17:11N 44°17' W 068°57'0 0.2
2018-Apr-18 15:12N 44°17' W 068°57'0 0.1
2018-Apr-18 13:21N 44°17' W 068°57'0 0.0
2018-Apr-17 21:13N 44°17' W 068°57'0 0.1
2018-Apr-17 20:22N 44°17' W 068°57'2 3.7
2018-Apr-17 19:44N 44°17' W 068°60'2 4.3
2018-Apr-17 19:12N 44°17' W 068°57'1 1.7
2018-Apr-17 18:37N 44°17' W 068°58'1 2.4
2018-Apr-17 18:13N 44°17' W 068°57'0 0.1
2018-Apr-17 17:32N 44°17' W 068°57'0 0.3
2018-Apr-17 17:15N 44°17' W 068°57'0 0.0
2018-Apr-17 15:13N 44°17' W 068°57'1 1.0
2018-Apr-17 14:35N 44°17' W 068°58'1 1.9
2018-Apr-17 14:14N 44°17' W 068°57'2 4.7
2018-Apr-17 13:44N 44°17' W 068°60'2 8.2
2018-Apr-17 13:26N 44°17' W 068°57'2 2.6
2018-Apr-17 12:42N 44°17' W 068°59'2 9.3
2018-Apr-17 12:30N 44°17' W 068°57'0 0.0
2018-Apr-16 21:12N 44°17' W 068°57'2 2.9
2018-Apr-16 20:38N 44°17' W 068°59'2 3.8
2018-Apr-16 20:13N 44°17' W 068°57'0 0.1
2018-Apr-16 19:31N 44°17' W 068°57'0 0.1
2018-Apr-16 19:14N 44°17' W 068°57'0 0.0
2018-Apr-16 18:33N 44°17' W 068°57'0 0.2
2018-Apr-16 18:23N 44°17' W 068°57'2 2.3
2018-Apr-16 17:40N 44°17' W 068°59'2 4.8
2018-Apr-16 17:20N 44°17' W 068°57'0 0.0
2018-Apr-16 16:25N 44°17' W 068°57'0 0.0
2018-Apr-16 15:48N 44°17' W 068°57'0 0.0
2018-Apr-16 15:30N 44°17' W 068°57'0 0.1
2018-Apr-16 14:31N 44°17' W 068°57'0 0.0
2018-Apr-16 14:12N 44°17' W 068°57'2 4.0
2018-Apr-16 13:40N 44°17' W 068°60'212.3
2018-Apr-16 13:30N 44°17' W 068°57'2 1.9
2018-Apr-16 12:38N 44°17' W 068°59'2 9.2
2018-Apr-16 12:27N 44°17' W 068°57'0 0.0
2018-Apr-16 08:46N 44°17' W 068°57'0 0.0
2018-Apr-16 08:29N 44°17' W 068°57'0 0.0
2018-Apr-16 07:57N 44°17' W 068°57'0 0.0
2018-Apr-16 07:25N 44°17' W 068°57'0 0.0
2018-Apr-16 06:16N 44°17' W 068°57'0 0.0
2018-Apr-16 05:58N 44°17' W 068°57'0 0.0
2018-Apr-16 02:29N 44°17' W 068°57'0 0.0
2018-Apr-16 01:41N 44°17' W 068°57'0 0.0
2018-Apr-15 21:30N 44°17' W 068°57'1 1.4
2018-Apr-15 20:38N 44°17' W 068°58'1 0.6
2018-Apr-15 18:30N 44°17' W 068°57'0 0.1
2018-Apr-15 17:31N 44°17' W 068°57'0 0.3
2018-Apr-15 17:13N 44°17' W 068°57'0 0.0
2018-Apr-15 15:22N 44°17' W 068°57'0 0.0
2018-Apr-14 20:14N 44°17' W 068°57'2 3.1
2018-Apr-14 19:40N 44°17' W 068°59'2 4.2
2018-Apr-14 19:13N 44°17' W 068°57'0 0.0
2018-Apr-14 18:31N 44°17' W 068°57'0 0.2
2018-Apr-14 17:33N 44°17' W 068°57'0 0.5
2018-Apr-14 17:14N 44°17' W 068°57'0 0.0
2018-Apr-14 15:13N 44°17' W 068°57'2 3.8
2018-Apr-14 14:41N 44°17' W 068°59'2 4.8
2018-Apr-14 14:15N 44°17' W 068°57'1 1.6
2018-Apr-14 13:35N 44°17' W 068°58'1 2.3
2018-Apr-14 13:13N 44°17' W 068°57'0 0.2
2018-Apr-14 12:31N 44°17' W 068°57'1 0.1
2018-Apr-13 21:09N 44°17' W 068°58'1 0.8
2018-Apr-13 20:12N 44°17' W 068°57'0 0.2
2018-Apr-13 19:32N 44°17' W 068°57'0 1.0
2018-Apr-13 19:11N 44°17' W 068°57'2 4.7
2018-Apr-13 18:45N 44°17' W 069°00'2 6.6
2018-Apr-13 18:22N 44°17' W 068°57'0 0.1
2018-Apr-13 17:35N 44°17' W 068°57'111.4
2018-Apr-13 17:30N 44°17' W 068°58'1 2.0
2018-Apr-13 16:57N 44°17' W 068°59'2 1.2
2018-Apr-13 15:13N 44°17' W 068°57'0 0.0
2018-Apr-13 14:31N 44°17' W 068°57'0 0.2
2018-Apr-13 14:12N 44°17' W 068°57'2 4.5
2018-Apr-13 13:42N 44°17' W 068°60'2 4.9
2018-Apr-13 13:14N 44°17' W 068°57'2 3.9
2018-Apr-13 12:42N 44°17' W 068°60'2 4.7
2018-Apr-13 12:15N 44°17' W 068°57'0 0.0
2018-Apr-12 21:13N 44°17' W 068°57'0 0.0
2018-Apr-12 20:32N 44°17' W 068°57'0 0.1
2018-Apr-12 20:12N 44°17' W 068°57'2 3.9
2018-Apr-12 19:41N 44°17' W 068°59'211.3
2018-Apr-12 19:30N 44°17' W 068°57'2 3.1
2018-Apr-12 18:43N 44°17' W 068°60'2 4.8
2018-Apr-12 18:13N 44°17' W 068°57'0 0.0
2018-Apr-12 17:32N 44°17' W 068°57'0 0.2
2018-Apr-12 17:12N 44°17' W 068°57'2 4.8
2018-Apr-12 16:44N 44°17' W 068°60'2 1.5
2018-Apr-12 15:13N 44°17' W 068°57'1 2.4
2018-Apr-12 14:39N 44°17' W 068°59'1 3.1
2018-Apr-12 14:12N 44°17' W 068°57'0 0.1
2018-Apr-12 13:31N 44°17' W 068°57'0 0.4
2018-Apr-12 13:16N 44°17' W 068°57'0 0.1
2018-Apr-12 12:33N 44°17' W 068°57'0 0.4
2018-Apr-12 12:14N 44°17' W 068°57'0 0.0
2018-Apr-11 17:11N 44°17' W 068°57'0 0.2
2018-Apr-11 14:31N 44°17' W 068°57'0 0.2
2018-Apr-11 14:14N 44°17' W 068°57'1 0.9
2018-Apr-11 12:39N 44°17' W 068°59'1 2.4
2018-Apr-11 12:14N 44°17' W 068°57'1 0.0
2018-Apr-10 21:08N 44°17' W 068°58'1 0.4
2018-Apr-10 18:32N 44°17' W 068°57'0 0.1
2018-Apr-10 18:15N 44°17' W 068°57'2 3.9
2018-Apr-10 17:42N 44°17' W 068°60'2 4.6
2018-Apr-10 17:15N 44°17' W 068°57'0 0.2
2018-Apr-10 15:10N 44°17' W 068°57'0 0.7
2018-Apr-10 14:31N 44°17' W 068°57'0 0.5
2018-Apr-10 14:28N 44°17' W 068°57'2 3.2
2018-Apr-10 13:43N 44°17' W 068°60'2 9.9
2018-Apr-10 13:28N 44°17' W 068°57'2 1.9
2018-Apr-10 12:40N 44°17' W 068°59'2 8.7
2018-Apr-10 12:30N 44°17' W 068°57'2 2.2
2018-Apr-10 11:41N 44°17' W 068°59'2 7.1
2018-Apr-10 11:26N 44°17' W 068°57'0 0.0
2018-Apr-10 10:46N 44°17' W 068°57'0 0.0
2018-Apr-10 10:25N 44°17' W 068°57'0 0.0
2018-Apr-10 09:43N 44°17' W 068°57'0 0.0
2018-Apr-10 09:29N 44°17' W 068°57'0 0.0
2018-Apr-10 08:39N 44°17' W 068°57'0 0.0
2018-Apr-10 08:23N 44°17' W 068°57'0 0.0
2018-Apr-10 07:58N 44°17' W 068°57'0 0.0
2018-Apr-10 07:25N 44°17' W 068°57'0 0.0
2018-Apr-10 06:59N 44°17' W 068°57'0 0.0
2018-Apr-10 06:16N 44°17' W 068°57'0 0.0
2018-Apr-10 05:44N 44°17' W 068°57'0 0.0
2018-Apr-10 05:29N 44°17' W 068°57'0 0.0
2018-Apr-10 04:51N 44°17' W 068°57'0 0.0
2018-Apr-10 04:12N 44°17' W 068°57'0 0.0
2018-Apr-09 21:11N 44°17' W 068°57'2 3.0
2018-Apr-09 20:40N 44°17' W 068°59'2 3.8
2018-Apr-09 20:13N 44°17' W 068°57'0 0.0
2018-Apr-09 17:13N 44°17' W 068°57'0 0.0
2018-Apr-09 15:12N 44°17' W 068°57'2 4.5
2018-Apr-09 14:42N 44°17' W 068°60'2 4.6
2018-Apr-09 14:13N 44°17' W 068°57'2 3.4
2018-Apr-09 13:41N 44°17' W 068°59'0 0.7
2018-Apr-09 13:06N 44°17' W 068°59'1 1.4
2018-Apr-09 12:41N 44°17' W 068°60'2 4.5
2018-Apr-09 12:14N 44°17' W 068°57'2 2.8
2018-Apr-09 11:39N 44°17' W 068°59'2 7.1
2018-Apr-09 11:24N 44°17' W 068°57'  
Track history (hours):
 
Tides and Currents Weather Stations Pressure Air Temp Water Temp Dewpoint Dewpoint Depression Visibility Wind Speed Wind Dir Waves Ship Positions

Margaret Chase Smith

Owner: Maine State Ferry Service, ROCKLAND, ME. More information available from US FCC via Universal Licensing System and Coast Guard Vessel Documentation Center.

Last reported at 2018-Apr-18 21:09 UTC. Time now 2018-Apr-19 11:28 UTC.
Position N 44°17' W 068°58'.

Length 50 m.

Type: Passenger vessel. MMSI: 367191630.

Date/timePositionNaut miles runAvg speedWind from/ knotsBaromVisibWave heightAir tempDewpointWater temp
2018-Apr-18 21:09N 44°17' W 068°58'0 0.1
2018-Apr-18 17:11N 44°17' W 068°57'0 0.2
2018-Apr-18 15:12N 44°17' W 068°57'0 0.1
2018-Apr-18 13:21N 44°17' W 068°57'0 0.0
2018-Apr-17 21:13N 44°17' W 068°57'0 0.1
2018-Apr-17 20:22N 44°17' W 068°57'2 3.7
2018-Apr-17 19:44N 44°17' W 068°60'2 4.3
2018-Apr-17 19:12N 44°17' W 068°57'1 1.7
2018-Apr-17 18:37N 44°17' W 068°58'1 2.4
2018-Apr-17 18:13N 44°17' W 068°57'0 0.1
2018-Apr-17 17:32N 44°17' W 068°57'0 0.3
2018-Apr-17 17:15N 44°17' W 068°57'0 0.0
2018-Apr-17 15:13N 44°17' W 068°57'1 1.0
2018-Apr-17 14:35N 44°17' W 068°58'1 1.9
2018-Apr-17 14:14N 44°17' W 068°57'2 4.7
2018-Apr-17 13:44N 44°17' W 068°60'2 8.2
2018-Apr-17 13:26N 44°17' W 068°57'2 2.6
2018-Apr-17 12:42N 44°17' W 068°59'2 9.3
2018-Apr-17 12:30N 44°17' W 068°57'0 0.0
2018-Apr-16 21:12N 44°17' W 068°57'2 2.9
2018-Apr-16 20:38N 44°17' W 068°59'2 3.8
2018-Apr-16 20:13N 44°17' W 068°57'0 0.1
2018-Apr-16 19:31N 44°17' W 068°57'0 0.1
2018-Apr-16 19:14N 44°17' W 068°57'0 0.0
2018-Apr-16 18:33N 44°17' W 068°57'0 0.2
2018-Apr-16 18:23N 44°17' W 068°57'2 2.3
2018-Apr-16 17:40N 44°17' W 068°59'2 4.8
2018-Apr-16 17:20N 44°17' W 068°57'0 0.0
2018-Apr-16 16:25N 44°17' W 068°57'0 0.0
2018-Apr-16 15:48N 44°17' W 068°57'0 0.0
2018-Apr-16 15:30N 44°17' W 068°57'0 0.1
2018-Apr-16 14:31N 44°17' W 068°57'0 0.0
2018-Apr-16 14:12N 44°17' W 068°57'2 4.0
2018-Apr-16 13:40N 44°17' W 068°60'212.3
2018-Apr-16 13:30N 44°17' W 068°57'2 1.9
2018-Apr-16 12:38N 44°17' W 068°59'2 9.2
2018-Apr-16 12:27N 44°17' W 068°57'0 0.0
2018-Apr-16 08:46N 44°17' W 068°57'0 0.0
2018-Apr-16 08:29N 44°17' W 068°57'0 0.0
2018-Apr-16 07:57N 44°17' W 068°57'0 0.0
2018-Apr-16 07:25N 44°17' W 068°57'0 0.0
2018-Apr-16 06:16N 44°17' W 068°57'0 0.0
2018-Apr-16 05:58N 44°17' W 068°57'0 0.0
2018-Apr-16 02:29N 44°17' W 068°57'0 0.0
2018-Apr-16 01:41N 44°17' W 068°57'0 0.0
2018-Apr-15 21:30N 44°17' W 068°57'1 1.4
2018-Apr-15 20:38N 44°17' W 068°58'1 0.6
2018-Apr-15 18:30N 44°17' W 068°57'0 0.1
2018-Apr-15 17:31N 44°17' W 068°57'0 0.3
2018-Apr-15 17:13N 44°17' W 068°57'0 0.0
2018-Apr-15 15:22N 44°17' W 068°57'0 0.0
2018-Apr-14 20:14N 44°17' W 068°57'2 3.1
2018-Apr-14 19:40N 44°17' W 068°59'2 4.2
2018-Apr-14 19:13N 44°17' W 068°57'0 0.0
2018-Apr-14 18:31N 44°17' W 068°57'0 0.2
2018-Apr-14 17:33N 44°17' W 068°57'0 0.5
2018-Apr-14 17:14N 44°17' W 068°57'0 0.0
2018-Apr-14 15:13N 44°17' W 068°57'2 3.8
2018-Apr-14 14:41N 44°17' W 068°59'2 4.8
2018-Apr-14 14:15N 44°17' W 068°57'1 1.6
2018-Apr-14 13:35N 44°17' W 068°58'1 2.3
2018-Apr-14 13:13N 44°17' W 068°57'0 0.2
2018-Apr-14 12:31N 44°17' W 068°57'1 0.1
2018-Apr-13 21:09N 44°17' W 068°58'1 0.8
2018-Apr-13 20:12N 44°17' W 068°57'0 0.2
2018-Apr-13 19:32N 44°17' W 068°57'0 1.0
2018-Apr-13 19:11N 44°17' W 068°57'2 4.7
2018-Apr-13 18:45N 44°17' W 069°00'2 6.6
2018-Apr-13 18:22N 44°17' W 068°57'0 0.1
2018-Apr-13 17:35N 44°17' W 068°57'111.4
2018-Apr-13 17:30N 44°17' W 068°58'1 2.0
2018-Apr-13 16:57N 44°17' W 068°59'2 1.2
2018-Apr-13 15:13N 44°17' W 068°57'0 0.0
2018-Apr-13 14:31N 44°17' W 068°57'0 0.2
2018-Apr-13 14:12N 44°17' W 068°57'2 4.5
2018-Apr-13 13:42N 44°17' W 068°60'2 4.9
2018-Apr-13 13:14N 44°17' W 068°57'2 3.9
2018-Apr-13 12:42N 44°17' W 068°60'2 4.7
2018-Apr-13 12:15N 44°17' W 068°57'0 0.0
2018-Apr-12 21:13N 44°17' W 068°57'0 0.0
2018-Apr-12 20:32N 44°17' W 068°57'0 0.1
2018-Apr-12 20:12N 44°17' W 068°57'2 3.9
2018-Apr-12 19:41N 44°17' W 068°59'211.3
2018-Apr-12 19:30N 44°17' W 068°57'2 3.1
2018-Apr-12 18:43N 44°17' W 068°60'2 4.8
2018-Apr-12 18:13N 44°17' W 068°57'0 0.0
2018-Apr-12 17:32N 44°17' W 068°57'0 0.2
2018-Apr-12 17:12N 44°17' W 068°57'2 4.8
2018-Apr-12 16:44N 44°17' W 068°60'2 1.5
2018-Apr-12 15:13N 44°17' W 068°57'1 2.4
2018-Apr-12 14:39N 44°17' W 068°59'1 3.1
2018-Apr-12 14:12N 44°17' W 068°57'0 0.1
2018-Apr-12 13:31N 44°17' W 068°57'0 0.4
2018-Apr-12 13:16N 44°17' W 068°57'0 0.1
2018-Apr-12 12:33N 44°17' W 068°57'0 0.4
2018-Apr-12 12:14N 44°17' W 068°57'0 0.0
2018-Apr-11 17:11N 44°17' W 068°57'0 0.2
2018-Apr-11 14:31N 44°17' W 068°57'0 0.2
2018-Apr-11 14:14N 44°17' W 068°57'1 0.9
2018-Apr-11 12:39N 44°17' W 068°59'1 2.4
2018-Apr-11 12:14N 44°17' W 068°57'1 0.0
2018-Apr-10 21:08N 44°17' W 068°58'1 0.4
2018-Apr-10 18:32N 44°17' W 068°57'0 0.1
2018-Apr-10 18:15N 44°17' W 068°57'2 3.9
2018-Apr-10 17:42N 44°17' W 068°60'2 4.6
2018-Apr-10 17:15N 44°17' W 068°57'0 0.2
2018-Apr-10 15:10N 44°17' W 068°57'0 0.7
2018-Apr-10 14:31N 44°17' W 068°57'0 0.5
2018-Apr-10 14:28N 44°17' W 068°57'2 3.2
2018-Apr-10 13:43N 44°17' W 068°60'2 9.9
2018-Apr-10 13:28N 44°17' W 068°57'2 1.9
2018-Apr-10 12:40N 44°17' W 068°59'2 8.7
2018-Apr-10 12:30N 44°17' W 068°57'2 2.2
2018-Apr-10 11:41N 44°17' W 068°59'2 7.1
2018-Apr-10 11:26N 44°17' W 068°57'0 0.0
2018-Apr-10 10:46N 44°17' W 068°57'0 0.0
2018-Apr-10 10:25N 44°17' W 068°57'0 0.0
2018-Apr-10 09:43N 44°17' W 068°57'0 0.0
2018-Apr-10 09:29N 44°17' W 068°57'0 0.0
2018-Apr-10 08:39N 44°17' W 068°57'0 0.0
2018-Apr-10 08:23N 44°17' W 068°57'0 0.0
2018-Apr-10 07:58N 44°17' W 068°57'0 0.0
2018-Apr-10 07:25N 44°17' W 068°57'0 0.0
2018-Apr-10 06:59N 44°17' W 068°57'0 0.0
2018-Apr-10 06:16N 44°17' W 068°57'0 0.0
2018-Apr-10 05:44N 44°17' W 068°57'0 0.0
2018-Apr-10 05:29N 44°17' W 068°57'0 0.0
2018-Apr-10 04:51N 44°17' W 068°57'0 0.0
2018-Apr-10 04:12N 44°17' W 068°57'0 0.0
2018-Apr-09 21:11N 44°17' W 068°57'2 3.0
2018-Apr-09 20:40N 44°17' W 068°59'2 3.8
2018-Apr-09 20:13N 44°17' W 068°57'0 0.0
2018-Apr-09 17:13N 44°17' W 068°57'0 0.0
2018-Apr-09 15:12N 44°17' W 068°57'2 4.5
2018-Apr-09 14:42N 44°17' W 068°60'2 4.6
2018-Apr-09 14:13N 44°17' W 068°57'2 3.4
2018-Apr-09 13:41N 44°17' W 068°59'0 0.7
2018-Apr-09 13:06N 44°17' W 068°59'1 1.4
2018-Apr-09 12:41N 44°17' W 068°60'2 4.5
2018-Apr-09 12:14N 44°17' W 068°57'2 2.8
2018-Apr-09 11:39N 44°17' W 068°59'2 7.1
2018-Apr-09 11:24N 44°17' W 068°57'  

Dump ship's entire track history